createdAt,value
2023-08-19T00:00:18.755Z,100.00
2023-08-19T00:01:00.996Z,100.00
2023-08-19T00:01:42.813Z,100.00
2023-08-19T00:02:24.537Z,100.00
2023-08-19T00:03:06.415Z,100.00
2023-08-19T00:03:49.411Z,100.00
2023-08-19T00:04:31.234Z,100.00
2023-08-19T00:05:13.304Z,100.00
2023-08-19T00:05:55.110Z,100.00
2023-08-19T00:06:40.881Z,100.00
2023-08-19T00:07:22.614Z,100.00
2023-08-19T00:08:04.701Z,100.00
2023-08-19T00:08:46.438Z,100.00
2023-08-19T00:09:28.669Z,100.00
2023-08-19T00:10:10.586Z,100.00
2023-08-19T00:10:52.328Z,100.00
2023-08-19T00:11:38.259Z,100.00
2023-08-19T00:12:20.097Z,100.00
2023-08-19T00:13:01.885Z,100.00
2023-08-19T00:13:43.567Z,100.00
2023-08-19T00:14:25.304Z,100.00
2023-08-19T00:15:08.964Z,100.00
2023-08-19T00:15:50.720Z,100.00
2023-08-19T00:16:33.984Z,100.00
2023-08-19T00:17:16.974Z,100.00
2023-08-19T00:18:01.085Z,100.00
2023-08-19T00:18:42.792Z,100.00
2023-08-19T00:19:24.557Z,100.00
2023-08-19T00:20:07.384Z,100.00
2023-08-19T00:20:51.189Z,100.00
2023-08-19T00:21:33.007Z,100.00
2023-08-19T00:22:14.860Z,100.00
2023-08-19T00:22:57.391Z,100.00
2023-08-19T00:23:39.129Z,100.00
2023-08-19T00:24:20.775Z,100.00
2023-08-19T00:25:05.080Z,100.00
2023-08-19T00:25:47.120Z,100.00
2023-08-19T00:26:28.804Z,100.00
2023-08-19T00:27:10.694Z,100.00
2023-08-19T00:27:53.624Z,100.00
2023-08-19T00:28:36.067Z,100.00
2023-08-19T00:29:17.979Z,100.00
2023-08-19T00:29:59.871Z,100.00
2023-08-19T00:30:41.733Z,100.00
2023-08-19T00:31:24.436Z,100.00
2023-08-19T00:32:06.438Z,100.00
2023-08-19T00:32:56.168Z,100.00
2023-08-19T00:33:38.056Z,100.00
2023-08-19T00:34:19.825Z,100.00
2023-08-19T00:35:01.549Z,100.00
2023-08-19T00:35:43.497Z,100.00
2023-08-19T00:36:26.470Z,100.00
2023-08-19T00:37:14.120Z,100.00
2023-08-19T00:37:55.883Z,100.00
2023-08-19T00:38:37.556Z,100.00
2023-08-19T00:39:19.273Z,100.00
2023-08-19T00:40:00.969Z,100.00
2023-08-19T00:40:42.630Z,100.00
2023-08-19T00:41:24.285Z,100.00
2023-08-19T00:42:07.951Z,100.00
2023-08-19T00:42:49.784Z,100.00
2023-08-19T00:43:32.404Z,100.00
2023-08-19T00:44:14.325Z,100.00
2023-08-19T00:44:55.958Z,100.00
2023-08-19T00:45:41.538Z,100.00
2023-08-19T00:46:23.903Z,100.00
2023-08-19T00:47:05.822Z,100.00
2023-08-19T00:47:48.879Z,100.00
2023-08-19T00:48:31.502Z,100.00
2023-08-19T00:49:13.528Z,100.00
2023-08-19T00:49:55.616Z,100.00
2023-08-19T00:50:37.665Z,100.00
2023-08-19T00:51:19.463Z,100.00
2023-08-19T00:52:02.248Z,100.00
2023-08-19T00:52:45.884Z,100.00
2023-08-19T00:53:27.591Z,100.00
2023-08-19T00:54:09.568Z,100.00
2023-08-19T00:54:52.110Z,100.00
2023-08-19T00:55:34.413Z,100.00
2023-08-19T00:56:16.558Z,100.00
2023-08-19T00:56:58.828Z,100.00
2023-08-19T00:57:41.399Z,100.00
2023-08-19T00:58:23.267Z,100.00
2023-08-19T00:59:06.120Z,100.00
2023-08-19T00:59:48.322Z,100.00
2023-08-19T01:00:33.808Z,100.00
2023-08-19T01:01:15.658Z,100.00
2023-08-19T01:01:57.601Z,100.00
2023-08-19T01:02:40.125Z,100.00
2023-08-19T01:03:21.984Z,100.00
2023-08-19T01:04:04.299Z,100.00
2023-08-19T01:04:46.334Z,100.00
2023-08-19T01:05:54.322Z,100.00
2023-08-19T01:07:02.815Z,100.00
2023-08-19T01:08:01.252Z,100.00
2023-08-19T01:09:00.634Z,100.00
2023-08-19T01:09:57.023Z,100.00
2023-08-19T01:10:57.340Z,100.00
2023-08-19T01:11:57.620Z,100.00
2023-08-19T01:13:01.541Z,100.00
2023-08-19T01:14:29.614Z,100.00
2023-08-19T01:15:19.507Z,100.00
2023-08-19T01:16:09.839Z,100.00
2023-08-19T01:16:54.813Z,100.00
2023-08-19T01:17:37.684Z,100.00
2023-08-19T01:18:20.014Z,100.00
2023-08-19T01:19:02.557Z,100.00
2023-08-19T01:19:45.849Z,100.00
2023-08-19T01:20:32.713Z,100.00
2023-08-19T01:21:14.537Z,100.00
2023-08-19T01:22:01.716Z,100.00
2023-08-19T01:23:04.638Z,100.00
2023-08-19T01:23:48.964Z,100.00
2023-08-19T01:24:39.027Z,100.00
2023-08-19T01:25:21.029Z,100.00
2023-08-19T01:26:03.035Z,100.00
2023-08-19T01:26:44.714Z,100.00
2023-08-19T01:27:27.969Z,100.00
2023-08-19T01:28:11.329Z,100.00
2023-08-19T01:28:53.047Z,100.00
2023-08-19T01:29:34.844Z,100.00
2023-08-19T01:30:16.694Z,100.00
2023-08-19T01:30:59.656Z,100.00
2023-08-19T01:31:41.371Z,100.00
2023-08-19T01:32:23.511Z,100.00
2023-08-19T01:33:06.112Z,100.00
2023-08-19T01:33:47.797Z,100.00
2023-08-19T01:34:29.702Z,100.00
2023-08-19T01:35:13.410Z,100.00
2023-08-19T01:36:08.628Z,100.00
2023-08-19T01:36:58.290Z,100.00
2023-08-19T01:37:58.494Z,100.00
2023-08-19T01:38:54.080Z,100.00
2023-08-19T01:39:38.006Z,100.00
2023-08-19T01:40:22.102Z,100.00
2023-08-19T01:41:04.712Z,100.00
2023-08-19T01:41:48.298Z,100.00
2023-08-19T01:42:31.554Z,100.00
2023-08-19T01:43:13.838Z,100.00
2023-08-19T01:43:58.137Z,100.00
2023-08-19T01:44:40.322Z,100.00
2023-08-19T01:45:22.670Z,100.00
2023-08-19T01:46:04.544Z,100.00
2023-08-19T01:46:46.402Z,100.00
2023-08-19T01:47:28.085Z,100.00
2023-08-19T01:48:10.264Z,100.00
2023-08-19T01:48:52.110Z,100.00
2023-08-19T01:49:33.787Z,100.00
2023-08-19T01:50:15.486Z,100.00
2023-08-19T01:50:57.527Z,100.00
2023-08-19T01:51:39.224Z,100.00
2023-08-19T01:52:21.150Z,100.00
2023-08-19T01:53:03.234Z,100.00
2023-08-19T01:53:45.035Z,100.00
2023-08-19T01:54:26.813Z,100.00
2023-08-19T01:55:09.137Z,100.00
2023-08-19T01:55:50.880Z,100.00
2023-08-19T01:56:32.855Z,100.00
2023-08-19T01:57:14.523Z,100.00
2023-08-19T01:57:56.250Z,100.00
2023-08-19T01:58:38.082Z,100.00
2023-08-19T01:59:19.781Z,100.00
2023-08-19T02:00:01.514Z,100.00
2023-08-19T02:00:56.693Z,100.00
2023-08-19T02:01:38.486Z,100.00
2023-08-19T02:02:20.211Z,100.00
2023-08-19T02:03:01.967Z,100.00
2023-08-19T02:03:43.740Z,100.00
2023-08-19T02:04:25.899Z,100.00
2023-08-19T02:05:12.829Z,100.00
2023-08-19T02:05:54.985Z,100.00
2023-08-19T02:06:36.765Z,100.00
2023-08-19T02:07:18.594Z,100.00
2023-08-19T02:08:00.257Z,100.00
2023-08-19T02:08:41.930Z,100.00
2023-08-19T02:09:23.850Z,100.00
2023-08-19T02:10:06.386Z,100.00
2023-08-19T02:10:48.298Z,100.00
2023-08-19T02:11:30.072Z,100.00
2023-08-19T02:12:11.859Z,100.00
2023-08-19T02:12:53.497Z,100.00
2023-08-19T02:13:35.151Z,100.00
2023-08-19T02:14:16.820Z,100.00
2023-08-19T02:14:59.565Z,100.00
2023-08-19T02:15:41.584Z,100.00
2023-08-19T02:16:24.094Z,100.00
2023-08-19T02:17:05.970Z,100.00
2023-08-19T02:17:47.714Z,100.00
2023-08-19T02:18:29.928Z,100.00
2023-08-19T02:19:11.634Z,100.00
2023-08-19T02:19:53.317Z,100.00
2023-08-19T02:20:35.026Z,100.00
2023-08-19T02:21:16.726Z,100.00
2023-08-19T02:21:58.483Z,100.00
2023-08-19T02:22:41.684Z,100.00
2023-08-19T02:23:23.316Z,100.00
2023-08-19T02:24:05.470Z,100.00
2023-08-19T02:24:47.768Z,100.00
2023-08-19T02:25:29.448Z,100.00
2023-08-19T02:26:11.550Z,100.00
2023-08-19T02:26:54.233Z,100.00
2023-08-19T02:27:38.801Z,100.00
2023-08-19T02:28:20.550Z,100.00
2023-08-19T02:29:02.225Z,100.00
2023-08-19T02:29:43.904Z,100.00
2023-08-19T02:30:25.588Z,100.00
2023-08-19T02:31:07.348Z,100.00
2023-08-19T02:31:49.093Z,100.00
2023-08-19T02:32:30.991Z,100.00
2023-08-19T02:33:13.172Z,100.00
2023-08-19T02:33:55.063Z,100.00
2023-08-19T02:34:36.794Z,100.00
2023-08-19T02:35:19.153Z,100.00
2023-08-19T02:36:01.372Z,100.00
2023-08-19T02:36:43.052Z,100.00
2023-08-19T02:37:24.741Z,100.00
2023-08-19T02:38:07.908Z,100.00
2023-08-19T02:38:49.661Z,100.00
2023-08-19T02:39:31.368Z,100.00
2023-08-19T02:40:13.168Z,100.00
2023-08-19T02:40:54.971Z,100.00
2023-08-19T02:41:36.671Z,100.00
2023-08-19T02:42:18.455Z,100.00
2023-08-19T02:43:00.779Z,100.00
2023-08-19T02:43:42.661Z,100.00
2023-08-19T02:44:24.478Z,100.00
2023-08-19T02:45:07.514Z,100.00
2023-08-19T02:45:49.450Z,100.00
2023-08-19T02:46:31.217Z,100.00
2023-08-19T02:47:13.198Z,100.00
2023-08-19T02:47:55.148Z,100.00
2023-08-19T02:48:36.826Z,100.00
2023-08-19T02:49:18.720Z,100.00
2023-08-19T02:50:00.770Z,100.00
2023-08-19T02:50:42.924Z,100.00
2023-08-19T02:51:24.699Z,100.00
2023-08-19T02:52:06.848Z,100.00
2023-08-19T02:52:48.567Z,100.00
2023-08-19T02:53:30.402Z,100.00
2023-08-19T02:54:13.264Z,100.00
2023-08-19T02:54:55.604Z,100.00
2023-08-19T02:55:42.676Z,100.00
2023-08-19T02:56:24.606Z,100.00
2023-08-19T02:57:06.386Z,100.00
2023-08-19T02:57:47.978Z,100.00
2023-08-19T02:58:29.669Z,100.00
2023-08-19T02:59:12.456Z,100.00
2023-08-19T02:59:56.309Z,100.00
2023-08-19T03:00:38.152Z,100.00
2023-08-19T03:01:19.908Z,100.00
2023-08-19T03:02:01.648Z,100.00
2023-08-19T03:02:47.909Z,100.00
2023-08-19T03:03:29.825Z,100.00
2023-08-19T03:04:11.611Z,100.00
2023-08-19T03:04:53.284Z,100.00
2023-08-19T03:05:38.613Z,100.00
2023-08-19T03:06:20.333Z,100.00
2023-08-19T03:07:02.033Z,100.00
2023-08-19T03:07:43.760Z,100.00
2023-08-19T03:08:25.647Z,100.00
2023-08-19T03:09:07.517Z,100.00
2023-08-19T03:09:49.213Z,100.00
2023-08-19T03:10:34.290Z,100.00
2023-08-19T03:11:16.194Z,100.00
2023-08-19T03:11:57.913Z,100.00
2023-08-19T03:12:39.752Z,100.00
2023-08-19T03:13:21.680Z,100.00
2023-08-19T03:14:03.528Z,100.00
2023-08-19T03:14:45.300Z,100.00
2023-08-19T03:15:27.238Z,100.00
2023-08-19T03:16:09.873Z,100.00
2023-08-19T03:16:51.694Z,100.00
2023-08-19T03:17:35.141Z,100.00
2023-08-19T03:18:17.310Z,100.00
2023-08-19T03:18:58.943Z,100.00
2023-08-19T03:19:40.771Z,100.00
2023-08-19T03:20:22.652Z,100.00
2023-08-19T03:21:04.448Z,100.00
2023-08-19T03:21:46.279Z,100.00
2023-08-19T03:22:27.944Z,100.00
2023-08-19T03:23:11.001Z,100.00
2023-08-19T03:23:52.749Z,100.00
2023-08-19T03:24:34.420Z,100.00
2023-08-19T03:25:17.888Z,100.00
2023-08-19T03:25:59.944Z,100.00
2023-08-19T03:26:42.425Z,100.00
2023-08-19T03:27:24.294Z,100.00
2023-08-19T03:28:07.881Z,100.00
2023-08-19T03:28:49.565Z,100.00
2023-08-19T03:29:31.323Z,100.00
2023-08-19T03:30:13.180Z,100.00
2023-08-19T03:30:55.520Z,100.00
2023-08-19T03:31:37.213Z,100.00
2023-08-19T03:32:19.070Z,100.00
2023-08-19T03:33:01.033Z,100.00
2023-08-19T03:33:43.291Z,100.00
2023-08-19T03:34:26.565Z,100.00
2023-08-19T03:35:08.495Z,100.00
2023-08-19T03:35:50.308Z,100.00
2023-08-19T03:36:32.043Z,100.00
2023-08-19T03:37:13.715Z,100.00
2023-08-19T03:37:55.439Z,100.00
2023-08-19T03:38:37.223Z,100.00
2023-08-19T03:39:18.973Z,100.00
2023-08-19T03:40:00.744Z,100.00
2023-08-19T03:40:42.507Z,100.00
2023-08-19T03:41:24.209Z,100.00
2023-08-19T03:42:06.002Z,100.00
2023-08-19T03:42:47.765Z,100.00
2023-08-19T03:43:29.604Z,100.00
2023-08-19T03:44:11.365Z,100.00
2023-08-19T03:44:53.125Z,100.00
2023-08-19T03:45:35.417Z,100.00
2023-08-19T03:46:17.137Z,100.00
2023-08-19T03:46:58.878Z,100.00
2023-08-19T03:47:40.634Z,100.00
2023-08-19T03:48:23.370Z,100.00
2023-08-19T03:49:05.441Z,100.00
2023-08-19T03:49:49.247Z,100.00
2023-08-19T03:50:30.963Z,100.00
2023-08-19T03:51:12.656Z,100.00
2023-08-19T03:51:54.423Z,100.00
2023-08-19T03:52:36.247Z,100.00
2023-08-19T03:53:17.923Z,100.00
2023-08-19T03:53:59.648Z,100.00
2023-08-19T03:54:41.639Z,100.00
2023-08-19T03:55:23.440Z,100.00
2023-08-19T03:56:05.642Z,100.00
2023-08-19T03:56:47.389Z,100.00
2023-08-19T03:57:29.595Z,100.00
2023-08-19T03:58:11.607Z,100.00
2023-08-19T03:58:53.313Z,100.00
2023-08-19T03:59:35.733Z,100.00
2023-08-19T04:00:17.748Z,100.00
2023-08-19T04:01:08.350Z,100.00
2023-08-19T04:01:53.357Z,100.00
2023-08-19T04:02:36.170Z,100.00
2023-08-19T04:03:17.876Z,100.00
2023-08-19T04:04:01.543Z,100.00
2023-08-19T04:05:05.797Z,100.00
2023-08-19T04:05:49.208Z,100.00
2023-08-19T04:06:30.938Z,100.00
2023-08-19T04:07:12.597Z,100.00
2023-08-19T04:07:54.366Z,100.00
2023-08-19T04:08:36.272Z,100.00
2023-08-19T04:09:18.133Z,100.00
2023-08-19T04:09:59.917Z,100.00
2023-08-19T04:10:42.090Z,100.00
2023-08-19T04:11:23.759Z,100.00
2023-08-19T04:12:06.024Z,100.00
2023-08-19T04:12:47.984Z,100.00
2023-08-19T04:13:29.716Z,100.00
2023-08-19T04:14:12.372Z,100.00
2023-08-19T04:14:54.415Z,100.00
2023-08-19T04:15:36.774Z,100.00
2023-08-19T04:16:19.524Z,100.00
2023-08-19T04:17:01.319Z,100.00
2023-08-19T04:17:44.219Z,100.00
2023-08-19T04:18:26.004Z,100.00
2023-08-19T04:19:07.909Z,100.00
2023-08-19T04:19:50.367Z,100.00
2023-08-19T04:20:32.117Z,100.00
2023-08-19T04:21:13.911Z,100.00
2023-08-19T04:21:55.598Z,100.00
2023-08-19T04:22:39.203Z,100.00
2023-08-19T04:23:21.146Z,100.00
2023-08-19T04:24:02.884Z,100.00
2023-08-19T04:24:51.123Z,100.00
2023-08-19T04:25:32.958Z,100.00
2023-08-19T04:26:14.700Z,100.00
2023-08-19T04:26:56.549Z,100.00
2023-08-19T04:27:38.417Z,100.00
2023-08-19T04:28:20.073Z,100.00
2023-08-19T04:29:03.598Z,100.00
2023-08-19T04:29:46.973Z,100.00
2023-08-19T04:30:30.180Z,100.00
2023-08-19T04:31:13.318Z,100.00
2023-08-19T04:32:16.274Z,100.00
2023-08-19T04:32:59.731Z,100.00
2023-08-19T04:33:42.702Z,100.00
2023-08-19T04:34:24.494Z,100.00
2023-08-19T04:35:06.959Z,100.00
2023-08-19T04:35:49.028Z,100.00
2023-08-19T04:36:30.701Z,100.00
2023-08-19T04:37:14.292Z,100.00
2023-08-19T04:37:57.569Z,100.00
2023-08-19T04:38:39.263Z,100.00
2023-08-19T04:39:24.586Z,100.00
2023-08-19T04:40:10.478Z,100.00
2023-08-19T04:40:55.656Z,100.00
2023-08-19T04:41:37.410Z,100.00
2023-08-19T04:42:19.359Z,100.00
2023-08-19T04:43:01.635Z,100.00
2023-08-19T04:43:43.451Z,100.00
2023-08-19T04:44:26.069Z,100.00
2023-08-19T04:45:07.942Z,100.00
2023-08-19T04:45:51.856Z,100.00
2023-08-19T04:46:33.733Z,100.00
2023-08-19T04:47:17.720Z,100.00
2023-08-19T04:47:59.483Z,100.00
2023-08-19T04:48:42.290Z,100.00
2023-08-19T04:49:24.028Z,100.00
2023-08-19T04:50:09.268Z,100.00
2023-08-19T04:50:51.243Z,100.00
2023-08-19T04:51:33.512Z,100.00
2023-08-19T04:52:16.748Z,100.00
2023-08-19T04:52:58.885Z,100.00
2023-08-19T04:53:41.902Z,100.00
2023-08-19T04:54:23.543Z,100.00
2023-08-19T04:55:06.359Z,100.00
2023-08-19T04:55:48.395Z,100.00
2023-08-19T04:56:30.462Z,100.00
2023-08-19T04:57:12.232Z,100.00
2023-08-19T04:57:54.371Z,100.00
2023-08-19T04:58:36.480Z,100.00
2023-08-19T04:59:18.401Z,100.00
2023-08-19T05:00:00.031Z,100.00
2023-08-19T05:00:41.752Z,100.00
2023-08-19T05:01:25.603Z,100.00
2023-08-19T05:02:08.188Z,100.00
2023-08-19T05:02:50.663Z,100.00
2023-08-19T05:03:33.986Z,100.00
2023-08-19T05:04:15.877Z,100.00
2023-08-19T05:04:57.689Z,100.00
2023-08-19T05:05:41.745Z,100.00
2023-08-19T05:06:24.334Z,100.00
2023-08-19T05:07:06.088Z,100.00
2023-08-19T05:07:48.904Z,100.00
2023-08-19T05:08:31.320Z,100.00
2023-08-19T05:09:14.795Z,100.00
2023-08-19T05:09:57.211Z,100.00
2023-08-19T05:10:38.914Z,100.00
2023-08-19T05:11:20.624Z,100.00
2023-08-19T05:12:05.548Z,100.00
2023-08-19T05:12:47.884Z,100.00
2023-08-19T05:13:29.693Z,100.00
2023-08-19T05:14:11.546Z,100.00
2023-08-19T05:14:53.344Z,100.00
2023-08-19T05:15:36.452Z,100.00
2023-08-19T05:16:18.308Z,100.00
2023-08-19T05:17:01.406Z,100.00
2023-08-19T05:17:43.154Z,100.00
2023-08-19T05:18:24.869Z,100.00
2023-08-19T05:19:17.940Z,100.00
2023-08-19T05:20:00.502Z,100.00
2023-08-19T05:20:42.545Z,100.00
2023-08-19T05:21:24.213Z,100.00
2023-08-19T05:22:05.913Z,100.00
2023-08-19T05:22:47.670Z,100.00
2023-08-19T05:23:29.925Z,100.00
2023-08-19T05:24:12.756Z,100.00
2023-08-19T05:24:54.448Z,100.00
2023-08-19T05:25:36.933Z,100.00
2023-08-19T05:26:18.955Z,100.00
2023-08-19T05:27:01.582Z,100.00
2023-08-19T05:27:43.332Z,100.00
2023-08-19T05:28:25.022Z,100.00
2023-08-19T05:29:07.383Z,100.00
2023-08-19T05:29:49.266Z,100.00
2023-08-19T05:30:30.968Z,100.00
2023-08-19T05:31:12.720Z,100.00
2023-08-19T05:31:54.792Z,100.00
2023-08-19T05:32:36.687Z,100.00
2023-08-19T05:33:18.437Z,100.00
2023-08-19T05:34:00.265Z,100.00
2023-08-19T05:34:42.001Z,100.00
2023-08-19T05:35:23.639Z,100.00
2023-08-19T05:36:05.550Z,100.00
2023-08-19T05:36:47.230Z,100.00
2023-08-19T05:37:28.978Z,100.00
2023-08-19T05:38:10.771Z,100.00
2023-08-19T05:38:52.478Z,100.00
2023-08-19T05:39:34.269Z,100.00
2023-08-19T05:40:16.000Z,100.00
2023-08-19T05:40:58.578Z,100.00
2023-08-19T05:41:40.572Z,100.00
2023-08-19T05:42:22.300Z,100.00
2023-08-19T05:43:04.182Z,100.00
2023-08-19T05:43:46.151Z,100.00
2023-08-19T05:44:28.219Z,100.00
2023-08-19T05:45:10.355Z,100.00
2023-08-19T05:45:52.097Z,100.00
2023-08-19T05:46:33.818Z,100.00
2023-08-19T05:47:16.387Z,100.00
2023-08-19T05:47:58.234Z,100.00
2023-08-19T05:48:40.023Z,100.00
2023-08-19T05:49:21.909Z,100.00
2023-08-19T05:50:04.972Z,100.00
2023-08-19T05:50:47.353Z,100.00
2023-08-19T05:51:29.180Z,100.00
2023-08-19T05:52:10.874Z,100.00
2023-08-19T05:52:52.575Z,100.00
2023-08-19T05:53:34.324Z,100.00
2023-08-19T05:54:16.131Z,100.00
2023-08-19T05:54:59.515Z,100.00
2023-08-19T05:55:43.223Z,100.00
2023-08-19T05:56:24.916Z,100.00
2023-08-19T05:57:08.746Z,100.00
2023-08-19T05:57:50.552Z,100.00
2023-08-19T05:58:32.216Z,100.00
2023-08-19T05:59:14.498Z,100.00
2023-08-19T05:59:56.545Z,100.00
2023-08-19T06:00:38.349Z,100.00
2023-08-19T06:02:01.835Z,100.00
2023-08-19T06:02:43.622Z,100.00
2023-08-19T06:03:25.803Z,100.00
2023-08-19T06:04:07.629Z,100.00
2023-08-19T06:04:49.337Z,100.00
2023-08-19T06:05:31.025Z,100.00
2023-08-19T06:06:12.761Z,100.00
2023-08-19T06:06:55.356Z,100.00
2023-08-19T06:07:38.591Z,100.00
2023-08-19T06:08:20.594Z,100.00
2023-08-19T06:09:02.406Z,100.00
2023-08-19T06:09:44.081Z,100.00
2023-08-19T06:10:25.820Z,100.00
2023-08-19T06:11:10.360Z,100.00
2023-08-19T06:11:53.292Z,100.00
2023-08-19T06:12:35.000Z,100.00
2023-08-19T06:13:16.676Z,100.00
2023-08-19T06:13:59.619Z,100.00
2023-08-19T06:14:41.440Z,100.00
2023-08-19T06:15:23.988Z,100.00
2023-08-19T06:16:06.449Z,100.00
2023-08-19T06:16:48.458Z,100.00
2023-08-19T06:17:30.643Z,100.00
2023-08-19T06:18:12.598Z,100.00
2023-08-19T06:18:54.320Z,100.00
2023-08-19T06:19:36.060Z,100.00
2023-08-19T06:20:19.145Z,100.00
2023-08-19T06:21:01.623Z,100.00
2023-08-19T06:21:43.384Z,100.00
2023-08-19T06:22:25.024Z,100.00
2023-08-19T06:23:06.775Z,100.00
2023-08-19T06:23:48.506Z,100.00
2023-08-19T06:24:30.171Z,100.00
2023-08-19T06:25:12.648Z,100.00
2023-08-19T06:25:54.697Z,100.00
2023-08-19T06:26:36.546Z,100.00
2023-08-19T06:27:18.302Z,100.00
2023-08-19T06:28:01.074Z,100.00
2023-08-19T06:28:42.795Z,100.00
2023-08-19T06:29:24.556Z,100.00
2023-08-19T06:30:07.421Z,100.00
2023-08-19T06:30:50.007Z,100.00
2023-08-19T06:31:32.723Z,100.00
2023-08-19T06:32:15.004Z,100.00
2023-08-19T06:32:57.091Z,100.00
2023-08-19T06:33:39.221Z,100.00
2023-08-19T06:34:21.207Z,100.00
2023-08-19T06:35:04.326Z,100.00
2023-08-19T06:35:51.018Z,100.00
2023-08-19T06:36:34.647Z,100.00
2023-08-19T06:37:21.020Z,100.00
2023-08-19T06:38:08.214Z,100.00
2023-08-19T06:38:55.528Z,100.00
2023-08-19T06:39:39.197Z,100.00
2023-08-19T06:40:22.643Z,100.00
2023-08-19T06:41:12.374Z,100.00
2023-08-19T06:42:05.170Z,100.00
2023-08-19T06:42:50.168Z,100.00
2023-08-19T06:43:32.627Z,100.00
2023-08-19T06:44:16.060Z,100.00
2023-08-19T06:45:00.920Z,100.00
2023-08-19T06:45:42.778Z,100.00
2023-08-19T06:46:24.823Z,100.00
2023-08-19T06:47:10.624Z,100.00
2023-08-19T06:47:54.135Z,100.00
2023-08-19T06:48:36.537Z,100.00
2023-08-19T06:49:18.403Z,100.00
2023-08-19T06:50:00.494Z,100.00
2023-08-19T06:50:42.419Z,100.00
2023-08-19T06:51:25.304Z,100.00
2023-08-19T06:52:07.743Z,100.00
2023-08-19T06:52:49.818Z,100.00
2023-08-19T06:53:31.989Z,100.00
2023-08-19T06:54:14.368Z,100.00
2023-08-19T06:54:56.321Z,100.00
2023-08-19T06:55:42.935Z,100.00
2023-08-19T06:56:41.010Z,100.00
2023-08-19T06:57:30.297Z,100.00
2023-08-19T06:58:23.019Z,100.00
2023-08-19T06:59:21.092Z,100.00
2023-08-19T07:00:12.731Z,100.00
2023-08-19T07:01:00.673Z,100.00
2023-08-19T07:01:48.049Z,100.00
2023-08-19T07:02:33.297Z,100.00
2023-08-19T07:03:15.361Z,100.00
2023-08-19T07:03:57.663Z,100.00
2023-08-19T07:04:41.391Z,98.77
2023-08-19T07:05:24.352Z,98.49
2023-08-19T07:06:08.426Z,98.47
2023-08-19T07:06:55.093Z,97.51
2023-08-19T07:07:39.926Z,97.00
2023-08-19T07:08:23.508Z,96.82
2023-08-19T07:09:08.775Z,97.20
2023-08-19T07:09:50.874Z,95.98
2023-08-19T07:10:33.018Z,94.94
2023-08-19T07:11:17.874Z,94.34
2023-08-19T07:11:59.989Z,91.08
2023-08-19T07:12:42.422Z,90.51
2023-08-19T07:13:24.551Z,90.98
2023-08-19T07:14:06.592Z,90.79
2023-08-19T07:14:48.708Z,90.60
2023-08-19T07:15:30.908Z,90.38
2023-08-19T07:16:13.804Z,89.90
2023-08-19T07:16:59.839Z,89.34
2023-08-19T07:17:47.502Z,87.72
2023-08-19T07:18:40.439Z,86.53
2023-08-19T07:19:28.330Z,87.25
2023-08-19T07:20:18.550Z,87.23
2023-08-19T07:21:01.162Z,87.05
2023-08-19T07:21:45.967Z,86.74
2023-08-19T07:22:28.141Z,85.78
2023-08-19T07:23:11.160Z,85.42
2023-08-19T07:23:58.406Z,85.11
2023-08-19T07:24:42.189Z,84.84
2023-08-19T07:25:24.339Z,85.11
2023-08-19T07:26:06.346Z,85.35
2023-08-19T07:26:49.466Z,85.32
2023-08-19T07:27:35.697Z,84.61
2023-08-19T07:28:20.687Z,84.34
2023-08-19T07:29:02.861Z,82.80
2023-08-19T07:29:44.873Z,82.69
2023-08-19T07:30:27.289Z,82.20
2023-08-19T07:31:11.131Z,80.87
2023-08-19T07:31:54.465Z,80.38
2023-08-19T07:32:37.361Z,80.49
2023-08-19T07:33:19.050Z,80.23
2023-08-19T07:34:00.713Z,80.53
2023-08-19T07:34:42.386Z,81.49
2023-08-19T07:35:24.530Z,81.87
2023-08-19T07:36:06.526Z,82.07
2023-08-19T07:36:49.962Z,83.53
2023-08-19T07:37:32.927Z,83.63
2023-08-19T07:38:15.126Z,83.57
2023-08-19T07:38:57.073Z,81.39
2023-08-19T07:39:39.524Z,81.53
2023-08-19T07:40:21.309Z,80.87
2023-08-19T07:41:03.314Z,79.81
2023-08-19T07:41:45.678Z,79.51
2023-08-19T07:42:30.765Z,78.69
2023-08-19T07:43:14.631Z,77.89
2023-08-19T07:43:56.657Z,77.16
2023-08-19T07:44:38.548Z,76.16
2023-08-19T07:45:20.959Z,75.79
2023-08-19T07:46:02.660Z,75.00
2023-08-19T07:46:44.442Z,74.82
2023-08-19T07:47:26.172Z,75.46
2023-08-19T07:48:07.955Z,75.90
2023-08-19T07:48:49.656Z,75.47
2023-08-19T07:49:32.030Z,74.76
2023-08-19T07:50:14.074Z,74.12
2023-08-19T07:50:55.968Z,73.68
2023-08-19T07:51:37.818Z,73.06
2023-08-19T07:52:19.520Z,72.19
2023-08-19T07:53:01.206Z,70.92
2023-08-19T07:53:42.987Z,70.42
2023-08-19T07:54:25.013Z,69.65
2023-08-19T07:55:06.905Z,69.01
2023-08-19T07:55:48.880Z,68.97
2023-08-19T07:56:30.766Z,68.32
2023-08-19T07:57:12.449Z,68.35
2023-08-19T07:57:54.374Z,67.69
2023-08-19T07:58:37.643Z,66.69
2023-08-19T07:59:19.433Z,66.37
2023-08-19T08:00:01.209Z,66.57
2023-08-19T08:00:43.436Z,66.79
2023-08-19T08:01:25.407Z,66.29
2023-08-19T08:02:08.214Z,65.54
2023-08-19T08:02:49.960Z,65.64
2023-08-19T08:03:33.652Z,66.78
2023-08-19T08:04:15.527Z,67.16
2023-08-19T08:04:57.280Z,67.32
2023-08-19T08:05:39.116Z,67.33
2023-08-19T08:06:21.052Z,66.90
2023-08-19T08:07:02.827Z,65.74
2023-08-19T08:07:44.560Z,65.41
2023-08-19T08:08:26.277Z,65.07
2023-08-19T08:09:08.010Z,65.21
2023-08-19T08:09:49.852Z,65.01
2023-08-19T08:10:31.556Z,64.87
2023-08-19T08:11:13.392Z,64.75
2023-08-19T08:11:56.553Z,63.84
2023-08-19T08:12:38.707Z,64.22
2023-08-19T08:13:20.573Z,64.36
2023-08-19T08:14:02.306Z,64.59
2023-08-19T08:14:44.106Z,64.09
2023-08-19T08:15:25.837Z,65.03
2023-08-19T08:16:07.586Z,64.13
2023-08-19T08:16:49.405Z,65.12
2023-08-19T08:17:31.915Z,65.63
2023-08-19T08:18:14.766Z,65.49
2023-08-19T08:18:56.495Z,65.43
2023-08-19T08:19:39.702Z,65.55
2023-08-19T08:20:21.706Z,65.40
2023-08-19T08:21:03.730Z,64.87
2023-08-19T08:21:45.401Z,63.80
2023-08-19T08:22:27.191Z,62.53
2023-08-19T08:23:08.831Z,62.09
2023-08-19T08:23:50.669Z,62.54
2023-08-19T08:24:32.875Z,63.01
2023-08-19T08:25:14.514Z,62.40
2023-08-19T08:25:56.223Z,61.54
2023-08-19T08:26:37.899Z,61.97
2023-08-19T08:27:19.609Z,61.67
2023-08-19T08:28:01.301Z,62.02
2023-08-19T08:28:43.806Z,62.38
2023-08-19T08:29:25.538Z,62.39
2023-08-19T08:30:07.959Z,62.83
2023-08-19T08:30:49.674Z,62.89
2023-08-19T08:31:31.578Z,62.39
2023-08-19T08:32:13.347Z,61.47
2023-08-19T08:32:55.100Z,61.76
2023-08-19T08:33:36.819Z,61.32
2023-08-19T08:34:18.566Z,61.50
2023-08-19T08:35:00.530Z,61.37
2023-08-19T08:35:42.211Z,60.79
2023-08-19T08:36:23.914Z,60.56
2023-08-19T08:37:05.860Z,61.19
2023-08-19T08:37:47.685Z,61.36
2023-08-19T08:38:29.390Z,61.47
2023-08-19T08:39:11.258Z,60.97
2023-08-19T08:39:52.994Z,60.84
2023-08-19T08:40:35.286Z,60.84
2023-08-19T08:41:17.088Z,61.11
2023-08-19T08:42:00.304Z,61.41
2023-08-19T08:42:42.481Z,61.25
2023-08-19T08:43:25.675Z,61.32
2023-08-19T08:44:09.384Z,61.42
2023-08-19T08:44:51.756Z,61.94
2023-08-19T08:45:33.842Z,61.89
2023-08-19T08:46:17.913Z,60.95
2023-08-19T08:47:00.616Z,60.39
2023-08-19T08:47:42.964Z,60.25
2023-08-19T08:48:26.498Z,60.23
2023-08-19T08:49:09.529Z,59.78
2023-08-19T08:49:53.729Z,60.21
2023-08-19T08:50:35.867Z,59.94
2023-08-19T08:51:19.243Z,60.66
2023-08-19T08:52:01.955Z,60.33
2023-08-19T08:52:44.250Z,59.55
2023-08-19T08:53:30.727Z,59.47
2023-08-19T08:54:12.869Z,59.15
2023-08-19T08:54:58.556Z,59.08
2023-08-19T08:55:40.280Z,58.90
2023-08-19T08:56:23.569Z,58.41
2023-08-19T08:57:05.701Z,57.93
2023-08-19T08:57:47.380Z,56.96
2023-08-19T08:58:29.236Z,56.49
2023-08-19T08:59:10.918Z,56.11
2023-08-19T08:59:55.093Z,55.65
2023-08-19T09:00:39.121Z,55.11
2023-08-19T09:01:23.967Z,54.69